createdAt,value
2019-03-16T00:02:19.738Z,6.43
2019-03-16T00:04:48.182Z,10.90
2019-03-16T00:07:16.629Z,10.67
2019-03-16T00:09:45.083Z,5.67
2019-03-16T00:12:13.526Z,12.70
2019-03-16T00:14:41.986Z,7.80
2019-03-16T00:17:10.424Z,4.37
2019-03-16T00:19:38.879Z,9.67
2019-03-16T00:22:07.331Z,11.40
2019-03-16T00:24:35.882Z,8.27
2019-03-16T00:27:04.406Z,13.97
2019-03-16T00:29:32.883Z,10.70
2019-03-16T00:32:12.970Z,7.50
2019-03-16T00:34:31.487Z,8.47
2019-03-16T00:36:59.963Z,5.00
2019-03-16T00:39:28.439Z,4.47
2019-03-16T00:41:56.878Z,12.47
2019-03-16T00:44:25.339Z,16.33
2019-03-16T00:46:53.778Z,10.80
2019-03-16T00:49:22.228Z,14.20
2019-03-16T00:51:50.689Z,5.13
2019-03-16T00:54:19.158Z,10.93
2019-03-16T00:56:47.894Z,8.50
2019-03-16T00:59:16.340Z,8.70
2019-03-16T01:01:44.803Z,8.63
2019-03-16T01:04:13.302Z,8.53
2019-03-16T01:06:41.749Z,8.70
2019-03-16T01:09:10.206Z,10.40
2019-03-16T01:11:38.906Z,5.33
2019-03-16T01:14:07.335Z,7.70
2019-03-16T01:16:35.793Z,14.40
2019-03-16T01:19:04.316Z,14.60
2019-03-16T01:21:32.834Z,10.20
2019-03-16T01:24:01.275Z,7.47
2019-03-16T01:26:29.729Z,7.50
2019-03-16T01:28:58.167Z,12.00
2019-03-16T01:31:26.702Z,11.40
2019-03-16T01:33:55.147Z,7.40
2019-03-16T01:36:23.603Z,8.60
2019-03-16T01:38:52.067Z,18.00
2019-03-16T01:41:20.576Z,10.60
2019-03-16T01:43:49.006Z,6.80
2019-03-16T01:46:17.442Z,17.67
2019-03-16T01:48:45.902Z,8.37
2019-03-16T01:51:14.334Z,12.30
2019-03-16T01:53:42.795Z,3.70
2019-03-16T01:56:11.230Z,19.23
2019-03-16T01:58:39.706Z,16.73
2019-03-16T02:01:08.143Z,8.80
2019-03-16T02:03:36.615Z,9.70
2019-03-16T02:06:05.063Z,6.90
2019-03-16T02:08:33.575Z,7.80
2019-03-16T02:11:02.013Z,15.80
2019-03-16T02:13:30.464Z,9.00
2019-03-16T02:16:10.322Z,11.97
2019-03-16T02:18:29.094Z,12.37
2019-03-16T02:20:57.513Z,15.80
2019-03-16T02:23:26.011Z,10.70
2019-03-16T02:25:57.337Z,25.33
2019-03-16T02:28:25.801Z,13.73
2019-03-16T02:30:54.498Z,13.03
2019-03-16T02:33:22.952Z,12.47
2019-03-16T02:35:51.397Z,15.43
2019-03-16T02:38:19.843Z,16.77
2019-03-16T02:40:48.291Z,13.67
2019-03-16T02:43:16.788Z,12.47
2019-03-16T02:45:45.271Z,19.33
2019-03-16T02:48:13.711Z,6.37
2019-03-16T02:50:42.169Z,6.33
2019-03-16T02:53:10.720Z,8.97
2019-03-16T02:55:39.299Z,14.97
2019-03-16T02:58:07.742Z,15.50
2019-03-16T03:00:36.224Z,12.87
2019-03-16T03:03:04.722Z,8.77
2019-03-16T03:05:33.159Z,16.33
2019-03-16T03:08:01.625Z,27.93
2019-03-16T03:10:30.163Z,17.80
2019-03-16T03:12:58.615Z,8.10
2019-03-16T03:15:27.075Z,17.00
2019-03-16T03:17:55.519Z,10.27
2019-03-16T03:20:23.955Z,12.93
2019-03-16T03:22:52.413Z,9.30
2019-03-16T03:25:20.911Z,18.23
2019-03-16T03:27:49.380Z,11.33
2019-03-16T03:30:17.934Z,16.80
2019-03-16T03:32:46.415Z,9.60
2019-03-16T03:35:14.913Z,12.80
2019-03-16T03:37:43.375Z,9.93
2019-03-16T03:40:12.464Z,15.10
2019-03-16T03:42:40.922Z,13.90
2019-03-16T03:45:12.507Z,16.60
2019-03-16T03:47:40.955Z,18.33
2019-03-16T03:50:14.531Z,8.57
2019-03-16T03:52:43.019Z,6.43
2019-03-16T03:55:12.839Z,12.90
2019-03-16T03:57:41.658Z,12.23
2019-03-16T04:02:51.799Z,12.63
2019-03-16T04:05:20.226Z,17.07
2019-03-16T04:07:48.693Z,14.47
2019-03-16T04:10:17.215Z,12.50
2019-03-16T04:12:45.675Z,11.43
2019-03-16T04:15:14.399Z,7.70
2019-03-16T04:17:42.915Z,11.23
2019-03-16T04:20:12.712Z,4.90
2019-03-16T04:22:41.148Z,10.03
2019-03-16T04:25:09.664Z,10.30
2019-03-16T04:27:38.108Z,5.17
2019-03-16T04:30:09.083Z,17.50
2019-03-16T04:32:37.522Z,13.60
2019-03-16T04:35:06.402Z,8.00
2019-03-16T04:37:34.846Z,8.50
2019-03-16T04:40:03.663Z,5.53
2019-03-16T04:42:32.091Z,3.50
2019-03-16T04:45:00.574Z,8.80
2019-03-16T04:47:29.010Z,3.20
2019-03-16T04:49:57.540Z,4.93
2019-03-16T04:52:25.989Z,10.33
2019-03-16T04:54:54.465Z,5.10
2019-03-16T04:57:22.892Z,4.63
2019-03-16T04:59:51.334Z,3.57
2019-03-16T05:02:19.794Z,7.10
2019-03-16T05:04:48.218Z,5.03
2019-03-16T05:07:16.679Z,5.93
2019-03-16T05:09:45.114Z,7.30
2019-03-16T05:12:13.560Z,6.57
2019-03-16T05:14:41.998Z,9.50
2019-03-16T05:17:10.470Z,8.20
2019-03-16T05:19:38.979Z,7.03
2019-03-16T05:22:07.462Z,6.83
2019-03-16T05:24:35.896Z,4.17
2019-03-16T05:27:04.370Z,8.30
2019-03-16T05:29:32.811Z,6.00
2019-03-16T05:32:01.294Z,6.03
2019-03-16T05:34:29.792Z,3.03
2019-03-16T05:36:58.362Z,3.40
2019-03-16T05:39:26.875Z,3.37
2019-03-16T05:41:55.333Z,3.20
2019-03-16T05:44:23.808Z,2.70
2019-03-16T05:46:52.247Z,2.20
2019-03-16T05:49:20.694Z,4.67
2019-03-16T05:51:49.126Z,4.63
2019-03-16T05:54:17.586Z,3.47
2019-03-16T05:56:46.042Z,2.67
2019-03-16T05:59:14.483Z,5.07
2019-03-16T06:01:42.950Z,3.50
2019-03-16T06:04:11.395Z,3.20
2019-03-16T06:06:39.835Z,3.83
2019-03-16T06:09:08.273Z,3.80
2019-03-16T06:11:36.728Z,3.73
2019-03-16T06:14:05.158Z,6.00
2019-03-16T06:16:33.606Z,5.63
2019-03-16T06:19:02.148Z,4.40
2019-03-16T06:21:30.596Z,5.50
2019-03-16T06:23:59.039Z,1.90
2019-03-16T06:26:27.482Z,1.97
2019-03-16T06:28:55.919Z,2.53
2019-03-16T06:31:24.384Z,2.83
2019-03-16T06:33:52.848Z,3.17
2019-03-16T06:36:21.295Z,3.60
2019-03-16T06:38:49.791Z,5.87
2019-03-16T06:41:18.235Z,7.40
2019-03-16T06:43:46.691Z,7.07
2019-03-16T06:46:15.146Z,9.10
2019-03-16T06:48:43.595Z,4.83
2019-03-16T06:51:12.031Z,6.63
2019-03-16T06:53:40.478Z,3.60
2019-03-16T06:56:08.965Z,2.70
2019-03-16T06:58:37.471Z,4.83
2019-03-16T07:01:05.910Z,2.83
2019-03-16T07:03:34.364Z,5.53
2019-03-16T07:06:02.815Z,3.77
2019-03-16T07:08:31.256Z,1.50
2019-03-16T07:10:59.706Z,1.67
2019-03-16T07:13:28.138Z,2.00
2019-03-16T07:15:56.570Z,1.63
2019-03-16T07:18:25.038Z,4.10
2019-03-16T07:20:53.492Z,2.40
2019-03-16T07:23:21.979Z,4.93
2019-03-16T07:25:50.651Z,1.90
2019-03-16T07:28:19.062Z,2.30
2019-03-16T07:30:47.514Z,1.20
2019-03-16T07:33:16.002Z,1.30
2019-03-16T07:35:44.499Z,2.97
2019-03-16T07:38:12.923Z,1.17
2019-03-16T07:40:41.405Z,1.23
2019-03-16T07:43:09.868Z,0.90
2019-03-16T07:45:38.343Z,0.50
2019-03-16T07:48:06.890Z,1.13
2019-03-16T07:50:35.322Z,0.50
2019-03-16T07:53:03.757Z,2.47
2019-03-16T07:55:32.207Z,0.50
2019-03-16T07:58:00.658Z,0.40
2019-03-16T08:00:29.143Z,0.50
2019-03-16T08:02:57.702Z,0.50
2019-03-16T08:05:26.147Z,0.50
2019-03-16T08:07:54.615Z,0.50
2019-03-16T08:10:23.066Z,0.50
2019-03-16T08:12:51.519Z,0.50
2019-03-16T08:15:19.988Z,0.50
2019-03-16T08:17:48.439Z,0.50
2019-03-16T08:20:16.879Z,0.53
2019-03-16T08:22:45.403Z,1.10
2019-03-16T08:25:13.958Z,0.50
2019-03-16T08:27:53.449Z,0.70
2019-03-16T08:30:12.862Z,0.80
2019-03-16T08:32:41.322Z,0.60
2019-03-16T08:35:09.922Z,3.50
2019-03-16T08:37:38.376Z,0.77
2019-03-16T08:40:12.913Z,1.57
2019-03-16T08:42:41.430Z,0.83
2019-03-16T08:45:10.746Z,1.20
2019-03-16T08:47:39.242Z,1.97
2019-03-16T08:50:09.482Z,3.20
2019-03-16T08:52:38.017Z,1.37
2019-03-16T08:55:08.006Z,1.83
2019-03-16T08:57:36.535Z,1.60
2019-03-16T09:00:10.500Z,2.50
2019-03-16T09:02:38.956Z,3.77
2019-03-16T09:05:08.243Z,2.57
2019-03-16T09:07:36.733Z,2.20
2019-03-16T09:10:07.305Z,2.47
2019-03-16T09:12:35.770Z,1.83
2019-03-16T09:15:06.386Z,2.20
2019-03-16T09:17:34.815Z,1.93
2019-03-16T09:20:04.106Z,2.50
2019-03-16T09:22:32.638Z,2.90
2019-03-16T09:25:01.112Z,3.13
2019-03-16T09:27:31.724Z,2.90
2019-03-16T09:30:00.366Z,2.20
2019-03-16T09:32:28.860Z,3.47
2019-03-16T09:34:57.373Z,3.23
2019-03-16T09:37:25.918Z,3.00
2019-03-16T09:39:54.363Z,3.40
2019-03-16T09:42:23.091Z,2.70
2019-03-16T09:44:51.604Z,2.13
2019-03-16T09:47:20.099Z,2.40
2019-03-16T09:49:48.566Z,2.97
2019-03-16T09:52:17.018Z,3.60
2019-03-16T09:54:45.821Z,2.20
2019-03-16T09:57:14.343Z,1.80
2019-03-16T09:59:42.791Z,2.27
2019-03-16T10:02:11.270Z,4.00
2019-03-16T10:04:39.803Z,2.37
2019-03-16T10:07:08.241Z,2.50
2019-03-16T10:09:36.715Z,2.57
2019-03-16T10:12:05.154Z,5.03
2019-03-16T10:14:33.633Z,2.53
2019-03-16T10:17:02.102Z,2.97
2019-03-16T10:19:30.571Z,2.47
2019-03-16T10:21:59.040Z,2.23
2019-03-16T10:24:27.626Z,4.43
2019-03-16T10:26:56.087Z,2.10
2019-03-16T10:29:26.491Z,1.67
2019-03-16T10:31:54.959Z,1.53
2019-03-16T10:34:23.469Z,1.90
2019-03-16T10:36:51.907Z,1.30
2019-03-16T10:39:20.400Z,1.23
2019-03-16T10:41:48.924Z,3.70
2019-03-16T10:44:18.233Z,1.20
2019-03-16T10:46:46.687Z,1.57
2019-03-16T10:49:15.164Z,1.20
2019-03-16T10:51:43.632Z,1.67
2019-03-16T10:54:12.113Z,2.10
2019-03-16T10:56:40.569Z,2.40
2019-03-16T10:59:09.095Z,1.60
2019-03-16T11:01:37.595Z,1.80
2019-03-16T11:04:06.063Z,1.67
2019-03-16T11:06:34.603Z,1.13
2019-03-16T11:09:03.033Z,1.30
2019-03-16T11:11:31.486Z,2.27
2019-03-16T11:13:59.942Z,1.33
2019-03-16T11:16:28.478Z,1.17
2019-03-16T11:18:56.933Z,1.30
2019-03-16T11:21:25.371Z,0.97
2019-03-16T11:23:53.822Z,1.70
2019-03-16T11:26:22.256Z,2.40
2019-03-16T11:28:50.702Z,2.23
2019-03-16T11:31:19.241Z,2.77
2019-03-16T11:33:48.553Z,2.60
2019-03-16T11:36:17.070Z,3.30
2019-03-16T11:38:45.524Z,3.10
2019-03-16T11:41:13.981Z,2.53
2019-03-16T11:43:42.438Z,2.00
2019-03-16T11:46:10.875Z,1.70
2019-03-16T11:48:39.427Z,1.83
2019-03-16T11:51:07.943Z,1.80
2019-03-16T11:53:36.443Z,3.43
2019-03-16T11:56:17.119Z,1.80
2019-03-16T11:58:35.102Z,1.17
2019-03-16T12:01:03.658Z,1.20
2019-03-16T12:03:32.090Z,1.43
2019-03-16T12:06:00.552Z,1.20
2019-03-16T12:08:29.019Z,1.20
2019-03-16T12:10:57.574Z,0.93
2019-03-16T12:13:26.026Z,1.13
2019-03-16T12:15:54.478Z,1.30
2019-03-16T12:18:22.995Z,2.00
2019-03-16T12:20:51.494Z,1.10
2019-03-16T12:23:19.998Z,1.60
2019-03-16T12:25:48.463Z,1.50
2019-03-16T12:28:16.896Z,2.00
2019-03-16T12:30:45.354Z,1.53
2019-03-16T12:33:13.805Z,1.87
2019-03-16T12:35:42.250Z,2.57
2019-03-16T12:38:10.701Z,1.27
2019-03-16T12:40:39.187Z,1.30
2019-03-16T12:43:07.639Z,4.70
2019-03-16T12:45:36.099Z,2.97
2019-03-16T12:48:04.535Z,1.60
2019-03-16T12:50:32.990Z,1.17
2019-03-16T12:53:01.443Z,1.30
2019-03-16T12:55:29.910Z,3.10
2019-03-16T12:57:58.350Z,1.20
2019-03-16T13:00:26.833Z,1.00
2019-03-16T13:02:55.358Z,1.50
2019-03-16T13:05:23.819Z,1.00
2019-03-16T13:07:52.322Z,1.47
2019-03-16T13:10:21.042Z,2.37
2019-03-16T13:12:49.478Z,1.03
2019-03-16T13:15:17.948Z,1.20
2019-03-16T13:17:46.390Z,1.90
2019-03-16T13:20:16.907Z,1.00
2019-03-16T13:22:45.399Z,3.53
2019-03-16T13:25:14.008Z,4.70
2019-03-16T13:27:42.555Z,1.10
2019-03-16T13:30:15.641Z,1.43
2019-03-16T13:32:44.140Z,1.67
2019-03-16T13:35:12.755Z,1.30
2019-03-16T13:37:41.285Z,4.67
2019-03-16T13:40:12.142Z,1.27
2019-03-16T13:42:40.602Z,1.80
2019-03-16T13:45:10.008Z,1.90
2019-03-16T13:47:38.456Z,2.20
2019-03-16T13:50:14.903Z,4.03
2019-03-16T13:52:43.612Z,1.70
2019-03-16T13:55:12.150Z,2.13
2019-03-16T13:57:40.668Z,1.70
2019-03-16T14:00:17.590Z,2.40
2019-03-16T14:02:46.147Z,1.73
2019-03-16T14:05:15.119Z,3.00
2019-03-16T14:07:43.931Z,2.13
2019-03-16T14:10:21.077Z,1.80
2019-03-16T14:12:49.559Z,1.90
2019-03-16T14:15:18.119Z,2.63
2019-03-16T14:17:46.588Z,4.97
2019-03-16T14:20:15.967Z,2.40
2019-03-16T14:22:44.508Z,2.27
2019-03-16T14:25:13.044Z,1.63
2019-03-16T14:27:41.575Z,1.53
2019-03-16T14:30:28.960Z,1.93
2019-03-16T14:32:45.111Z,1.40
2019-03-16T14:35:13.766Z,1.30
2019-03-16T14:37:42.511Z,1.37
2019-03-16T14:40:13.776Z,0.90
2019-03-16T14:42:42.270Z,1.30
2019-03-16T14:45:12.166Z,2.03
2019-03-16T14:47:40.659Z,2.13
2019-03-16T14:50:16.270Z,2.83
2019-03-16T14:52:44.538Z,9.10
2019-03-16T14:55:12.969Z,1.47
2019-03-16T14:57:41.489Z,3.43
2019-03-16T15:00:16.713Z,2.30
2019-03-16T15:02:46.476Z,1.70
2019-03-16T15:05:15.387Z,4.93
2019-03-16T15:07:43.879Z,1.63
2019-03-16T15:10:13.594Z,2.53
2019-03-16T15:12:42.036Z,7.40
2019-03-16T15:15:18.158Z,2.47
2019-03-16T15:17:46.628Z,1.80
2019-03-16T15:20:15.224Z,2.70
2019-03-16T15:22:43.675Z,2.10
2019-03-16T15:25:12.791Z,1.70
2019-03-16T15:27:41.307Z,5.47
2019-03-16T15:30:21.918Z,3.90
2019-03-16T15:32:50.652Z,1.40
2019-03-16T15:35:19.093Z,1.70
2019-03-16T15:37:47.568Z,1.43
2019-03-16T15:40:16.341Z,1.93
2019-03-16T15:42:44.780Z,1.97
2019-03-16T15:45:26.706Z,11.07
2019-03-16T15:47:55.416Z,1.87
2019-03-16T15:50:23.915Z,2.73
2019-03-16T15:52:52.385Z,1.93
2019-03-16T15:55:20.935Z,5.57
2019-03-16T15:57:49.447Z,2.07
2019-03-16T16:00:18.738Z,3.73
2019-03-16T16:02:47.339Z,7.00
2019-03-16T16:05:15.789Z,4.20
2019-03-16T16:07:44.261Z,1.90
2019-03-16T16:10:14.243Z,1.90
2019-03-16T16:12:42.823Z,2.17
2019-03-16T16:15:12.571Z,1.43
2019-03-16T16:17:41.097Z,7.20
2019-03-16T16:20:12.617Z,2.70
2019-03-16T16:22:41.064Z,1.90
2019-03-16T16:25:11.307Z,1.97
2019-03-16T16:27:39.871Z,3.50
2019-03-16T16:30:11.667Z,2.20
2019-03-16T16:32:40.183Z,4.43
2019-03-16T16:35:10.371Z,5.90
2019-03-16T16:37:38.912Z,3.53
2019-03-16T16:40:12.610Z,3.70
2019-03-16T16:42:41.124Z,6.03
2019-03-16T16:45:11.335Z,2.87
2019-03-16T16:47:39.795Z,2.53
2019-03-16T16:50:13.813Z,1.70
2019-03-16T16:52:42.357Z,2.97
2019-03-16T16:55:10.932Z,2.20
2019-03-16T16:57:39.398Z,2.77
2019-03-16T17:00:10.982Z,2.30
2019-03-16T17:02:39.441Z,5.17
2019-03-16T17:05:08.031Z,5.47
2019-03-16T17:07:36.552Z,7.77
2019-03-16T17:10:12.935Z,3.43
2019-03-16T17:12:41.385Z,2.50
2019-03-16T17:15:14.040Z,5.67
2019-03-16T17:17:42.488Z,4.23
2019-03-16T17:20:12.764Z,4.57
2019-03-16T17:22:41.221Z,4.97
2019-03-16T17:25:13.667Z,3.03
2019-03-16T17:27:42.751Z,9.97
2019-03-16T17:30:16.864Z,4.90
2019-03-16T17:32:45.438Z,3.70
2019-03-16T17:35:13.886Z,5.37
2019-03-16T17:37:42.390Z,6.70
2019-03-16T17:40:14.973Z,8.87
2019-03-16T17:42:43.418Z,4.97
2019-03-16T17:45:15.537Z,4.43
2019-03-16T17:47:43.972Z,3.10
2019-03-16T17:50:13.759Z,3.37
2019-03-16T17:52:42.357Z,2.37
2019-03-16T17:55:13.974Z,6.43
2019-03-16T17:57:45.071Z,2.57
2019-03-16T18:00:18.055Z,4.40
2019-03-16T18:02:51.618Z,2.60
2019-03-16T18:05:16.826Z,10.63
2019-03-16T18:07:45.294Z,4.63
2019-03-16T18:10:14.464Z,6.63
2019-03-16T18:12:43.067Z,2.20
2019-03-16T18:15:16.768Z,6.17
2019-03-16T18:17:45.238Z,3.10
2019-03-16T18:20:18.087Z,6.00
2019-03-16T18:22:47.464Z,1.70
2019-03-16T18:25:16.242Z,3.37
2019-03-16T18:27:44.706Z,5.07
2019-03-16T18:30:15.070Z,4.50
2019-03-16T18:32:43.565Z,2.10
2019-03-16T18:35:12.031Z,4.20
2019-03-16T18:37:40.719Z,2.53
2019-03-16T18:40:18.331Z,6.30
2019-03-16T18:42:46.818Z,3.73
2019-03-16T18:45:21.121Z,3.50
2019-03-16T18:47:49.602Z,6.37
2019-03-16T18:50:18.038Z,7.33
2019-03-16T18:52:46.556Z,5.40
2019-03-16T18:55:14.993Z,2.97
2019-03-16T18:57:43.434Z,3.70
2019-03-16T19:00:14.958Z,5.07
2019-03-16T19:02:43.402Z,13.20
2019-03-16T19:05:11.911Z,2.37
2019-03-16T19:07:40.435Z,7.17
2019-03-16T19:10:13.257Z,3.40
2019-03-16T19:12:41.697Z,3.77
2019-03-16T19:15:12.570Z,5.20
2019-03-16T19:17:41.128Z,4.53
2019-03-16T19:20:11.620Z,3.50
2019-03-16T19:22:40.078Z,6.03
2019-03-16T19:25:11.234Z,4.93
2019-03-16T19:27:39.772Z,4.80
2019-03-16T19:30:11.406Z,3.37
2019-03-16T19:32:39.881Z,9.60
2019-03-16T19:35:08.850Z,3.33
2019-03-16T19:37:37.361Z,2.90
2019-03-16T19:40:11.454Z,3.93
2019-03-16T19:42:39.932Z,3.10
2019-03-16T19:45:10.532Z,8.50
2019-03-16T19:47:38.971Z,3.33
2019-03-16T19:50:12.423Z,4.97
2019-03-16T19:52:40.883Z,4.57
2019-03-16T19:55:13.355Z,3.00
2019-03-16T19:57:41.795Z,10.33
2019-03-16T20:00:14.705Z,7.13
2019-03-16T20:02:50.233Z,8.10
2019-03-16T20:05:13.685Z,3.40
2019-03-16T20:07:42.148Z,4.20
2019-03-16T20:10:15.245Z,7.30
2019-03-16T20:12:43.766Z,6.20
2019-03-16T20:15:14.522Z,3.53
2019-03-16T20:17:42.962Z,7.40
2019-03-16T20:20:12.959Z,7.13
2019-03-16T20:22:41.387Z,4.83
2019-03-16T20:25:10.107Z,6.10
2019-03-16T20:27:38.551Z,3.90
2019-03-16T20:30:10.122Z,5.73
2019-03-16T20:32:38.575Z,6.43
2019-03-16T20:35:08.620Z,9.83
2019-03-16T20:37:38.219Z,6.73
2019-03-16T20:40:11.476Z,5.70
2019-03-16T20:42:39.947Z,3.40
2019-03-16T20:45:09.820Z,3.90
2019-03-16T20:47:38.403Z,3.53
2019-03-16T20:50:14.767Z,8.83
2019-03-16T20:52:43.248Z,3.60
2019-03-16T20:55:11.752Z,7.40
2019-03-16T20:57:40.816Z,4.30
2019-03-16T21:00:15.973Z,9.93
2019-03-16T21:02:44.505Z,10.80
2019-03-16T21:05:13.079Z,12.10
2019-03-16T21:07:41.590Z,2.97
2019-03-16T21:10:11.385Z,6.10
2019-03-16T21:12:40.622Z,11.90
2019-03-16T21:15:12.178Z,4.97
2019-03-16T21:17:40.694Z,7.17
2019-03-16T21:20:17.659Z,3.43
2019-03-16T21:22:46.111Z,7.80
2019-03-16T21:25:15.409Z,3.90
2019-03-16T21:27:43.920Z,5.30
2019-03-16T21:30:16.650Z,2.83
2019-03-16T21:32:45.179Z,5.17
2019-03-16T21:35:13.702Z,5.40
2019-03-16T21:37:42.228Z,3.73
2019-03-16T21:40:14.944Z,4.60
2019-03-16T21:42:43.522Z,3.23
2019-03-16T21:45:13.086Z,5.13
2019-03-16T21:47:41.541Z,3.60
2019-03-16T21:50:16.465Z,3.70
2019-03-16T21:52:45.179Z,5.13
2019-03-16T21:55:14.492Z,4.63
2019-03-16T21:57:42.991Z,3.90
2019-03-16T22:00:16.068Z,4.17
2019-03-16T22:02:44.533Z,3.73
2019-03-16T22:05:13.139Z,3.03
2019-03-16T22:07:41.639Z,5.57
2019-03-16T22:10:13.170Z,3.40
2019-03-16T22:12:41.675Z,3.30
2019-03-16T22:15:16.767Z,3.90
2019-03-16T22:17:45.343Z,3.67
2019-03-16T22:20:15.997Z,4.07
2019-03-16T22:22:44.454Z,10.43
2019-03-16T22:25:13.094Z,6.97
2019-03-16T22:27:41.523Z,3.90
2019-03-16T22:30:14.424Z,2.70
2019-03-16T22:32:42.856Z,2.97
2019-03-16T22:35:11.327Z,4.67
2019-03-16T22:37:39.773Z,4.00
2019-03-16T22:40:12.210Z,8.53
2019-03-16T22:42:40.662Z,8.27
2019-03-16T22:45:14.459Z,3.30
2019-03-16T22:47:43.023Z,6.43
2019-03-16T22:50:13.579Z,3.47
2019-03-16T22:52:42.066Z,4.63
2019-03-16T22:55:10.575Z,2.80
2019-03-16T22:57:39.034Z,4.50
2019-03-16T23:00:10.551Z,3.03
2019-03-16T23:02:39.047Z,3.70
2019-03-16T23:05:09.616Z,2.80
2019-03-16T23:07:38.047Z,4.30
2019-03-16T23:10:09.457Z,3.13
2019-03-16T23:12:37.910Z,4.00
2019-03-16T23:15:08.777Z,2.80
2019-03-16T23:17:37.259Z,3.70
2019-03-16T23:20:06.929Z,1.93
2019-03-16T23:22:35.370Z,2.53
2019-03-16T23:25:04.877Z,2.93
2019-03-16T23:27:33.330Z,2.10
2019-03-16T23:30:01.812Z,6.40
2019-03-16T23:32:30.318Z,2.70
2019-03-16T23:34:58.783Z,2.37
2019-03-16T23:37:27.274Z,2.40
2019-03-16T23:39:55.717Z,3.80
2019-03-16T23:42:24.178Z,4.57
2019-03-16T23:44:52.612Z,2.10
2019-03-16T23:47:21.103Z,2.23
2019-03-16T23:49:49.652Z,2.40
2019-03-16T23:52:18.109Z,2.77
2019-03-16T23:54:46.646Z,2.20
2019-03-16T23:57:15.234Z,2.57
2019-03-16T23:59:43.712Z,2.53
